createdAt,value
2022-08-09T00:01:18.257Z,59.91
2022-08-09T00:04:05.955Z,59.80
2022-08-09T00:06:33.041Z,60.36
2022-08-09T00:09:00.282Z,59.89
2022-08-09T00:11:55.042Z,60.17
2022-08-09T00:14:17.311Z,59.36
2022-08-09T00:16:49.140Z,59.61
2022-08-09T00:19:18.488Z,59.46
2022-08-09T00:21:55.823Z,59.67
2022-08-09T00:24:23.651Z,59.19
2022-08-09T00:26:50.913Z,60.20
2022-08-09T00:29:39.117Z,59.26
2022-08-09T00:32:04.414Z,58.81
2022-08-09T00:34:32.589Z,58.70
2022-08-09T00:37:00.556Z,58.71
2022-08-09T00:40:12.294Z,58.39
2022-08-09T00:44:10.157Z,58.09
2022-08-09T00:45:03.786Z,58.82
2022-08-09T00:47:42.924Z,58.32
2022-08-09T00:50:14.551Z,58.35
2022-08-09T00:52:41.821Z,58.15
2022-08-09T00:55:08.997Z,58.28
2022-08-09T00:57:43.429Z,57.65
2022-08-09T01:00:21.220Z,57.05
2022-08-09T01:03:04.501Z,56.80
2022-08-09T01:05:46.483Z,57.72
2022-08-09T01:08:27.291Z,57.82
2022-08-09T01:11:15.362Z,58.16
2022-08-09T01:14:00.008Z,58.65
2022-08-09T01:16:35.124Z,59.06
2022-08-09T01:19:17.082Z,60.39
2022-08-09T01:22:29.654Z,59.19
2022-08-09T01:25:24.818Z,58.45
2022-08-09T01:27:53.801Z,58.51
2022-08-09T01:30:35.428Z,58.76
2022-08-09T01:33:06.230Z,58.89
2022-08-09T01:35:51.873Z,58.55
2022-08-09T01:38:23.402Z,58.56
2022-08-09T01:41:05.121Z,58.77
2022-08-09T01:43:41.806Z,57.79
2022-08-09T01:46:34.754Z,57.58
2022-08-09T01:49:10.631Z,58.06
2022-08-09T01:51:44.622Z,57.30
2022-08-09T01:54:27.954Z,57.43
2022-08-09T01:57:04.101Z,57.60
2022-08-09T01:59:32.941Z,58.72
2022-08-09T02:02:20.936Z,58.72
2022-08-09T02:04:50.364Z,57.97
2022-08-09T02:08:39.106Z,57.70
2022-08-09T02:10:12.109Z,57.51
2022-08-09T02:12:40.029Z,57.37
2022-08-09T02:15:11.900Z,57.09
2022-08-09T02:18:00.176Z,56.62
2022-08-09T02:20:45.298Z,56.23
2022-08-09T02:23:39.795Z,55.84
2022-08-09T02:26:09.389Z,55.61
2022-08-09T02:28:59.544Z,55.92
2022-08-09T02:31:33.977Z,56.36
2022-08-09T02:34:13.165Z,56.62
2022-08-09T02:36:54.269Z,56.58
2022-08-09T02:39:39.769Z,57.52
2022-08-09T02:42:16.531Z,57.45
2022-08-09T02:44:57.305Z,58.22
2022-08-09T02:47:24.678Z,58.09
2022-08-09T02:50:01.541Z,58.28
2022-08-09T02:52:38.836Z,57.69
2022-08-09T02:55:21.017Z,57.71
2022-08-09T02:58:00.490Z,57.22
2022-08-09T03:00:39.516Z,57.73
2022-08-09T03:03:21.684Z,57.07
2022-08-09T03:06:06.547Z,56.80
2022-08-09T03:08:35.627Z,56.27
2022-08-09T03:11:03.797Z,56.40
2022-08-09T03:13:43.266Z,56.12
2022-08-09T03:16:21.300Z,55.99
2022-08-09T03:18:48.460Z,56.36
2022-08-09T03:21:25.676Z,56.54
2022-08-09T03:24:04.481Z,56.59
2022-08-09T03:26:33.919Z,56.13
2022-08-09T03:29:01.113Z,56.18
2022-08-09T03:31:42.407Z,56.15
2022-08-09T03:34:12.015Z,56.71
2022-08-09T03:36:40.692Z,56.00
2022-08-09T03:39:15.128Z,55.78
2022-08-09T03:41:45.730Z,56.48
2022-08-09T03:44:15.514Z,56.18
2022-08-09T03:46:42.815Z,55.89
2022-08-09T03:49:11.686Z,56.04
2022-08-09T03:51:56.869Z,56.12
2022-08-09T03:54:31.154Z,55.91
2022-08-09T03:57:18.429Z,56.26
2022-08-09T03:59:54.751Z,55.65
2022-08-09T04:02:27.939Z,56.28
2022-08-09T04:05:06.056Z,56.22
2022-08-09T04:07:53.505Z,56.01
2022-08-09T04:10:29.099Z,55.94
2022-08-09T04:12:58.347Z,55.93
2022-08-09T04:15:42.698Z,55.47
2022-08-09T04:18:17.985Z,55.35
2022-08-09T04:20:46.575Z,55.90
2022-08-09T04:23:17.262Z,55.86
2022-08-09T04:25:51.611Z,56.06
2022-08-09T04:28:33.894Z,56.08
2022-08-09T04:31:09.148Z,56.07
2022-08-09T04:33:52.012Z,55.40
2022-08-09T04:36:31.214Z,56.35
2022-08-09T04:39:00.279Z,55.53
2022-08-09T04:41:32.291Z,55.91
2022-08-09T04:44:06.328Z,56.03
2022-08-09T04:46:59.038Z,56.67
2022-08-09T04:49:47.717Z,56.22
2022-08-09T04:52:12.050Z,55.77
2022-08-09T04:54:45.462Z,55.79
2022-08-09T04:57:12.325Z,56.35
2022-08-09T04:59:38.931Z,56.24
2022-08-09T05:02:06.441Z,56.26
2022-08-09T05:04:33.120Z,56.38
2022-08-09T05:06:59.749Z,56.14
2022-08-09T05:09:42.237Z,56.27
2022-08-09T05:12:13.145Z,56.58
2022-08-09T05:14:42.610Z,56.96
2022-08-09T05:18:37.558Z,58.40
2022-08-09T05:19:57.111Z,59.84
2022-08-09T05:23:50.409Z,57.74
2022-08-09T05:25:12.433Z,51.67
2022-08-09T05:27:46.483Z,47.32
2022-08-09T05:30:17.612Z,44.53
2022-08-09T05:32:51.114Z,42.79
2022-08-09T05:35:22.005Z,39.68
2022-08-09T05:37:50.971Z,38.27
2022-08-09T05:40:18.815Z,37.69
2022-08-09T05:42:46.350Z,36.41
2022-08-09T05:45:14.402Z,35.47
2022-08-09T05:47:53.039Z,35.04
2022-08-09T05:50:50.775Z,33.76
2022-08-09T05:53:31.776Z,32.98
2022-08-09T05:55:58.469Z,32.50
2022-08-09T05:58:25.307Z,32.22
2022-08-09T06:00:53.259Z,31.43
2022-08-09T06:03:20.552Z,31.58
2022-08-09T06:05:50.570Z,30.32
2022-08-09T06:08:31.426Z,31.49
2022-08-09T06:10:59.227Z,31.09
2022-08-09T06:13:28.313Z,30.07
2022-08-09T06:15:55.497Z,29.91
2022-08-09T06:18:25.315Z,30.09
2022-08-09T06:20:57.125Z,29.22
2022-08-09T06:23:57.715Z,29.46
2022-08-09T06:26:20.269Z,29.24
2022-08-09T06:28:47.327Z,29.34
2022-08-09T06:31:14.091Z,28.91
2022-08-09T06:33:42.169Z,29.37
2022-08-09T06:36:19.497Z,29.28
2022-08-09T06:38:54.285Z,28.54
2022-08-09T06:41:24.854Z,28.46
2022-08-09T06:44:14.280Z,27.29
2022-08-09T06:46:45.381Z,27.00
2022-08-09T06:49:12.772Z,28.06
2022-08-09T06:51:42.925Z,27.89
2022-08-09T06:54:14.876Z,27.61
2022-08-09T06:56:45.428Z,28.09
2022-08-09T07:00:51.244Z,27.91
2022-08-09T07:02:04.522Z,27.37
2022-08-09T07:04:31.640Z,26.91
2022-08-09T07:07:00.578Z,26.70
2022-08-09T07:09:54.931Z,26.36
2022-08-09T07:12:18.324Z,26.59
2022-08-09T07:14:51.104Z,26.24
2022-08-09T07:17:19.385Z,26.70
2022-08-09T07:19:48.101Z,26.53
2022-08-09T07:22:18.002Z,27.16
2022-08-09T07:24:49.543Z,26.56
2022-08-09T07:27:27.379Z,27.61
2022-08-09T07:30:02.052Z,27.52
2022-08-09T07:32:32.545Z,27.08
2022-08-09T07:35:02.650Z,27.44
2022-08-09T07:37:29.697Z,28.38
2022-08-09T07:39:56.618Z,29.29
2022-08-09T07:42:32.437Z,28.15
2022-08-09T07:45:02.601Z,27.83
2022-08-09T07:47:39.476Z,28.20
2022-08-09T07:50:16.804Z,28.14
2022-08-09T07:52:43.689Z,27.76
2022-08-09T07:55:14.786Z,27.90
2022-08-09T07:57:46.787Z,27.66
2022-08-09T08:00:20.485Z,27.88
2022-08-09T08:03:08.040Z,27.36
2022-08-09T08:05:39.085Z,26.93
2022-08-09T08:09:00.938Z,26.83
2022-08-09T08:12:09.058Z,26.95
2022-08-09T08:13:57.245Z,27.99
2022-08-09T08:16:32.049Z,27.86
2022-08-09T08:19:02.562Z,28.28
2022-08-09T08:21:30.453Z,29.50
2022-08-09T08:23:57.090Z,28.80
2022-08-09T08:26:54.799Z,29.19
2022-08-09T08:29:15.345Z,28.78
2022-08-09T08:32:04.331Z,31.64
2022-08-09T08:34:34.552Z,29.95
2022-08-09T08:37:03.751Z,29.70
2022-08-09T08:39:38.229Z,30.51
2022-08-09T08:42:10.291Z,31.22
2022-08-09T08:44:37.095Z,30.93
2022-08-09T08:47:12.633Z,30.20
2022-08-09T08:49:46.597Z,31.16
2022-08-09T08:52:52.776Z,32.18
2022-08-09T08:55:05.750Z,31.95
2022-08-09T08:57:35.214Z,33.34
2022-08-09T09:00:12.649Z,32.84
2022-08-09T09:02:49.910Z,34.06
2022-08-09T09:05:57.490Z,33.52
2022-08-09T09:08:29.258Z,34.14
2022-08-09T09:11:01.007Z,33.83
2022-08-09T09:13:41.670Z,35.13
2022-08-09T09:16:16.129Z,33.63
2022-08-09T09:18:48.130Z,34.39
2022-08-09T09:21:16.186Z,33.01
2022-08-09T09:23:58.282Z,33.56
2022-08-09T09:26:31.386Z,33.40
2022-08-09T09:29:03.395Z,33.36
2022-08-09T09:32:04.600Z,34.21
2022-08-09T09:34:23.380Z,34.78
2022-08-09T09:36:54.181Z,33.58
2022-08-09T09:39:25.604Z,32.98
2022-08-09T09:42:26.125Z,33.85
2022-08-09T09:44:58.008Z,33.70
2022-08-09T09:47:28.547Z,32.97
2022-08-09T09:50:15.187Z,34.32
2022-08-09T09:52:56.222Z,35.64
2022-08-09T09:55:32.024Z,35.13
2022-08-09T09:58:16.498Z,35.48
2022-08-09T10:00:55.778Z,35.62
2022-08-09T10:04:00.731Z,35.95
2022-08-09T10:06:42.764Z,35.59
2022-08-09T10:09:22.504Z,33.95
2022-08-09T10:12:14.315Z,34.95
2022-08-09T10:14:49.339Z,34.25
2022-08-09T10:17:39.546Z,34.24
2022-08-09T10:20:35.586Z,34.54
2022-08-09T10:23:20.509Z,35.19
2022-08-09T10:26:04.288Z,35.07
2022-08-09T10:28:36.098Z,35.90
2022-08-09T10:34:08.676Z,36.28
2022-08-09T10:36:38.302Z,37.25
2022-08-09T10:39:05.948Z,37.76
2022-08-09T10:41:42.433Z,36.41
2022-08-09T10:44:09.979Z,36.33
2022-08-09T10:47:01.172Z,35.65
2022-08-09T10:49:49.750Z,35.19
2022-08-09T10:52:43.026Z,35.50
2022-08-09T10:55:25.728Z,36.29
2022-08-09T10:57:55.359Z,35.23
2022-08-09T11:00:28.797Z,35.41
2022-08-09T11:03:14.870Z,35.19
2022-08-09T11:06:15.402Z,34.40
2022-08-09T11:08:47.851Z,34.79
2022-08-09T11:11:16.938Z,35.01
2022-08-09T11:13:51.218Z,34.95
2022-08-09T11:16:39.034Z,34.77
2022-08-09T11:19:09.394Z,35.68
2022-08-09T11:21:57.192Z,34.44
2022-08-09T11:24:57.598Z,35.63
2022-08-09T11:28:09.288Z,33.02
2022-08-09T11:30:32.991Z,33.01
2022-08-09T11:33:19.058Z,32.58
2022-08-09T11:35:50.196Z,33.16
2022-08-09T11:38:30.998Z,33.37
2022-08-09T11:41:38.080Z,32.23
2022-08-09T11:44:08.194Z,34.36
2022-08-09T11:46:54.812Z,31.90
2022-08-09T11:50:55.586Z,30.91
2022-08-09T11:53:21.117Z,33.06
2022-08-09T11:55:52.201Z,32.13
2022-08-09T11:58:30.121Z,32.99
2022-08-09T12:01:03.473Z,33.41
2022-08-09T12:03:57.369Z,33.73
2022-08-09T12:06:26.647Z,34.54
2022-08-09T12:08:55.855Z,34.17
2022-08-09T12:11:25.520Z,32.72
2022-08-09T12:14:10.832Z,32.33
2022-08-09T12:16:44.366Z,33.68
2022-08-09T12:19:13.630Z,31.81
2022-08-09T12:21:48.578Z,30.88
2022-08-09T12:24:24.089Z,32.43
2022-08-09T12:29:13.569Z,32.69
2022-08-09T12:30:04.308Z,32.05
2022-08-09T12:32:40.666Z,33.58
2022-08-09T12:35:12.357Z,31.28
2022-08-09T12:37:50.141Z,31.76
2022-08-09T12:40:18.580Z,33.76
2022-08-09T12:42:50.494Z,32.99
2022-08-09T12:45:33.199Z,33.19
2022-08-09T12:48:03.243Z,33.13
2022-08-09T12:50:30.737Z,33.12
2022-08-09T12:53:17.456Z,33.01
2022-08-09T12:56:14.497Z,33.44
2022-08-09T12:58:31.692Z,31.47
2022-08-09T13:00:58.902Z,30.92
2022-08-09T13:03:53.257Z,32.16
2022-08-09T13:06:34.325Z,32.08
2022-08-09T13:09:12.565Z,31.96
2022-08-09T13:11:42.760Z,32.35
2022-08-09T13:14:42.411Z,32.48
2022-08-09T13:17:43.701Z,33.23
2022-08-09T13:20:14.042Z,33.04
2022-08-09T13:23:05.564Z,32.94
2022-08-09T13:25:42.465Z,32.79
2022-08-09T13:28:18.819Z,32.43
2022-08-09T13:32:17.773Z,32.95
2022-08-09T13:33:58.915Z,32.47
2022-08-09T13:36:41.321Z,31.92
2022-08-09T13:39:34.157Z,32.69
2022-08-09T13:42:12.614Z,32.14
2022-08-09T13:44:43.281Z,34.27
2022-08-09T13:47:31.106Z,33.60
2022-08-09T13:50:02.130Z,34.12
2022-08-09T13:52:30.053Z,35.08
2022-08-09T13:55:00.495Z,33.48
2022-08-09T13:57:37.479Z,33.92
2022-08-09T14:00:13.146Z,32.88
2022-08-09T14:03:04.237Z,32.53
2022-08-09T14:05:58.863Z,32.60
2022-08-09T14:08:19.506Z,32.43
2022-08-09T14:10:52.675Z,33.29
2022-08-09T14:14:15.945Z,33.14
2022-08-09T14:16:12.452Z,33.61
2022-08-09T14:18:43.298Z,33.44
2022-08-09T14:21:17.478Z,33.11
2022-08-09T14:23:54.562Z,33.00
2022-08-09T14:26:33.865Z,32.23
2022-08-09T14:29:03.653Z,32.46
2022-08-09T14:31:50.260Z,32.46
2022-08-09T14:37:08.548Z,31.79
2022-08-09T14:39:46.133Z,31.92
2022-08-09T14:42:30.156Z,32.04
2022-08-09T14:46:40.014Z,34.46
2022-08-09T14:47:58.267Z,34.25
2022-08-09T14:50:28.612Z,34.31
2022-08-09T14:52:56.039Z,34.36
2022-08-09T14:55:22.620Z,34.65
2022-08-09T14:57:49.765Z,35.81
2022-08-09T15:00:17.229Z,35.00
2022-08-09T15:02:47.149Z,34.86
2022-08-09T15:05:16.191Z,33.98
2022-08-09T15:07:45.410Z,34.34
2022-08-09T15:10:24.891Z,34.53
2022-08-09T15:12:53.660Z,34.79
2022-08-09T15:15:21.237Z,34.27
2022-08-09T15:17:52.401Z,32.92
2022-08-09T15:21:57.309Z,32.50
2022-08-09T15:24:01.002Z,33.28
2022-08-09T15:25:58.100Z,34.29
2022-08-09T15:28:27.390Z,35.58
2022-08-09T15:31:07.462Z,35.74
2022-08-09T15:34:17.094Z,36.56
2022-08-09T15:36:29.479Z,36.98
2022-08-09T15:38:59.841Z,36.74
2022-08-09T15:41:32.290Z,37.13
2022-08-09T15:44:01.831Z,37.12
2022-08-09T15:46:33.767Z,37.51
2022-08-09T15:49:22.975Z,37.89
2022-08-09T15:52:04.014Z,38.08
2022-08-09T15:54:52.626Z,37.37
2022-08-09T15:57:34.179Z,37.39
2022-08-09T16:00:14.860Z,37.38
2022-08-09T16:02:48.236Z,37.67
2022-08-09T16:05:23.772Z,37.34
2022-08-09T16:07:50.842Z,37.32
2022-08-09T16:10:56.181Z,37.19
2022-08-09T16:13:20.994Z,37.23
2022-08-09T16:16:11.054Z,37.70
2022-08-09T16:18:44.987Z,37.24
2022-08-09T16:21:17.486Z,37.17
2022-08-09T16:23:54.917Z,37.69
2022-08-09T16:26:34.871Z,38.15
2022-08-09T16:29:14.767Z,38.46
2022-08-09T16:32:19.527Z,38.20
2022-08-09T16:34:54.906Z,38.43
2022-08-09T16:37:18.345Z,37.66
2022-08-09T16:39:54.507Z,37.65
2022-08-09T16:42:32.519Z,38.31
2022-08-09T16:44:59.096Z,37.69
2022-08-09T16:48:40.193Z,37.71
2022-08-09T16:50:29.687Z,37.28
2022-08-09T16:52:59.236Z,37.58
2022-08-09T16:55:25.783Z,37.50
2022-08-09T16:58:10.217Z,37.24
2022-08-09T17:00:38.810Z,37.63
2022-08-09T17:03:20.888Z,37.71
2022-08-09T17:06:06.951Z,37.95
2022-08-09T17:08:45.077Z,37.25
2022-08-09T17:11:24.610Z,37.21
2022-08-09T17:14:01.717Z,38.38
2022-08-09T17:16:28.563Z,37.36
2022-08-09T17:18:55.331Z,37.93
2022-08-09T17:21:21.982Z,37.66
2022-08-09T17:24:27.274Z,37.80
2022-08-09T17:26:38.061Z,37.29
2022-08-09T17:29:05.224Z,37.06
2022-08-09T17:31:38.803Z,37.64
2022-08-09T17:34:20.294Z,38.20
2022-08-09T17:36:54.151Z,38.09
2022-08-09T17:39:24.847Z,37.73
2022-08-09T17:41:51.723Z,38.01
2022-08-09T17:44:38.981Z,38.24
2022-08-09T17:47:05.872Z,38.40
2022-08-09T17:49:51.315Z,38.29
2022-08-09T17:52:22.702Z,37.60
2022-08-09T17:54:49.745Z,38.57
2022-08-09T17:57:20.572Z,38.29
2022-08-09T18:00:05.633Z,38.20
2022-08-09T18:02:39.004Z,38.15
2022-08-09T18:05:06.628Z,39.02
2022-08-09T18:07:40.093Z,39.48
2022-08-09T18:10:15.200Z,39.37
2022-08-09T18:13:43.520Z,39.58
2022-08-09T18:16:08.122Z,40.28
2022-08-09T18:18:25.184Z,39.78
2022-08-09T18:21:11.027Z,39.55
2022-08-09T18:24:12.000Z,39.63
2022-08-09T18:26:26.297Z,39.56
2022-08-09T18:30:42.770Z,39.63
2022-08-09T18:31:51.283Z,39.78
2022-08-09T18:34:24.241Z,39.52
2022-08-09T18:36:53.330Z,39.29
2022-08-09T18:39:22.335Z,39.17
2022-08-09T18:41:52.168Z,38.68
2022-08-09T18:44:25.459Z,39.10
2022-08-09T18:47:06.238Z,38.67
2022-08-09T18:49:43.204Z,38.64
2022-08-09T18:52:12.191Z,38.69
2022-08-09T18:54:49.796Z,38.89
2022-08-09T18:57:19.752Z,38.94
2022-08-09T18:59:54.409Z,39.15
2022-08-09T19:02:30.887Z,39.03
2022-08-09T19:05:14.872Z,39.64
2022-08-09T19:08:03.652Z,39.43
2022-08-09T19:10:37.802Z,39.44
2022-08-09T19:13:20.920Z,39.32
2022-08-09T19:15:52.798Z,39.87
2022-08-09T19:18:33.003Z,39.98
2022-08-09T19:21:02.551Z,40.25
2022-08-09T19:24:38.054Z,40.13
2022-08-09T19:26:16.195Z,40.18
2022-08-09T19:28:48.593Z,40.02
2022-08-09T19:31:16.821Z,40.15
2022-08-09T19:33:43.606Z,40.44
2022-08-09T19:36:11.784Z,39.98
2022-08-09T19:38:40.336Z,40.54
2022-08-09T19:41:06.936Z,41.11
2022-08-09T19:44:00.736Z,41.12
2022-08-09T19:46:34.260Z,40.64
2022-08-09T19:50:04.574Z,41.05
2022-08-09T19:51:55.467Z,40.35
2022-08-09T19:54:27.105Z,40.44
2022-08-09T19:56:55.019Z,40.82
2022-08-09T19:59:57.677Z,40.82
2022-08-09T20:03:23.975Z,40.98
2022-08-09T20:04:59.002Z,41.07
2022-08-09T20:07:26.157Z,41.47
2022-08-09T20:10:17.620Z,41.36
2022-08-09T20:12:49.025Z,41.93
2022-08-09T20:16:37.864Z,41.86
2022-08-09T20:18:03.319Z,41.64
2022-08-09T20:20:34.894Z,42.38
2022-08-09T20:23:04.376Z,42.64
2022-08-09T20:25:51.292Z,42.92
2022-08-09T20:28:34.359Z,42.47
2022-08-09T20:31:05.707Z,42.95
2022-08-09T20:33:39.054Z,43.19
2022-08-09T20:36:08.643Z,43.91
2022-08-09T20:38:52.750Z,43.54
2022-08-09T20:41:29.237Z,44.10
2022-08-09T20:44:01.243Z,44.11
2022-08-09T20:46:42.649Z,44.90
2022-08-09T20:49:12.860Z,44.79
2022-08-09T20:51:41.534Z,45.16
2022-08-09T20:54:12.474Z,46.21
2022-08-09T20:56:49.503Z,46.16
2022-08-09T20:59:24.842Z,47.83
2022-08-09T21:02:08.180Z,49.02
2022-08-09T21:05:51.486Z,48.60
2022-08-09T21:07:24.880Z,47.84
2022-08-09T21:10:05.514Z,48.11
2022-08-09T21:15:23.702Z,49.19
2022-08-09T21:18:11.901Z,49.20
2022-08-09T21:20:53.840Z,49.63
2022-08-09T21:23:21.466Z,49.17
2022-08-09T21:25:57.206Z,50.47
2022-08-09T21:28:35.133Z,51.27
2022-08-09T21:31:16.268Z,51.48
2022-08-09T21:33:53.006Z,51.37
2022-08-09T21:36:25.773Z,51.93
2022-08-09T21:38:57.590Z,52.45
2022-08-09T21:42:04.189Z,51.60
2022-08-09T21:44:33.250Z,52.43
2022-08-09T21:47:07.785Z,52.66
2022-08-09T21:49:39.700Z,52.47
2022-08-09T21:52:14.914Z,52.13
2022-08-09T21:55:02.877Z,52.25
2022-08-09T21:57:37.585Z,52.71
2022-08-09T22:00:25.993Z,52.62
2022-08-09T22:02:58.098Z,52.63
2022-08-09T22:05:33.649Z,53.23
2022-08-09T22:08:06.331Z,53.22
2022-08-09T22:10:33.171Z,53.38
2022-08-09T22:13:00.791Z,54.00
2022-08-09T22:15:37.088Z,53.48
2022-08-09T22:18:04.353Z,53.14
2022-08-09T22:20:39.741Z,54.85
2022-08-09T22:23:10.686Z,54.26
2022-08-09T22:26:07.034Z,54.56
2022-08-09T22:28:32.471Z,54.97
2022-08-09T22:30:59.930Z,55.23
2022-08-09T22:33:37.586Z,55.11
2022-08-09T22:36:10.201Z,55.81
2022-08-09T22:38:37.376Z,56.06
2022-08-09T22:41:04.319Z,54.31
2022-08-09T22:44:01.665Z,55.21
2022-08-09T22:48:14.265Z,55.38
2022-08-09T22:49:09.825Z,54.12
2022-08-09T22:51:39.477Z,54.81
2022-08-09T22:54:10.935Z,54.72
2022-08-09T22:56:40.410Z,54.11
2022-08-09T22:59:56.716Z,54.71
2022-08-09T23:01:55.587Z,54.80
2022-08-09T23:04:22.695Z,54.60
2022-08-09T23:07:14.169Z,53.81
2022-08-09T23:09:42.981Z,54.83
2022-08-09T23:12:10.925Z,54.88
2022-08-09T23:14:41.883Z,54.51
2022-08-09T23:17:10.106Z,54.85
2022-08-09T23:20:01.119Z,54.90
2022-08-09T23:22:23.720Z,54.80
2022-08-09T23:24:50.282Z,55.28
2022-08-09T23:27:16.811Z,55.42
2022-08-09T23:29:43.535Z,55.39
2022-08-09T23:32:10.189Z,55.54
2022-08-09T23:34:37.650Z,55.49
2022-08-09T23:37:04.669Z,54.80
2022-08-09T23:39:32.115Z,56.10
2022-08-09T23:41:58.872Z,56.67
2022-08-09T23:44:25.387Z,56.02
2022-08-09T23:46:55.907Z,56.16
2022-08-09T23:49:25.729Z,55.97
2022-08-09T23:51:53.370Z,55.66
2022-08-09T23:54:20.790Z,54.91
2022-08-09T23:56:53.647Z,53.90
2022-08-09T23:59:23.632Z,54.67
